Time;durP1;ratioP1;P1;durP2;ratioP2;P2;SDS_P1;SDS_P2;PMS_P1;PMS_P2;Temp;Humidity;BMP_temperature;BMP_pressure;BME280_temperature;BME280_humidity;BME280_pressure;Samples;Min_cycle;Max_cycle;Signal;HPM_P1;HPM_P2
2022/04/06 00:00:49;;;;;;;10.20;4.38;;;6.30;99.90;;;;;;5076140;28;20032;-71
2022/04/06 00:03:15;;;;;;;10.57;3.80;;;6.20;99.90;;;;;;5076018;28;20024;-71
2022/04/06 00:05:42;;;;;;;7.03;2.92;;;6.10;99.90;;;;;;5076033;28;20020;-71
2022/04/06 00:08:07;;;;;;;5.20;2.65;;;6.10;99.90;;;;;;5076038;28;20024;-71
2022/04/06 00:10:33;;;;;;;11.90;4.13;;;6.10;99.90;;;;;;5076036;28;20457;-71
2022/04/06 00:13:00;;;;;;;9.57;4.00;;;6.10;99.90;;;;;;5075840;28;20028;-70
2022/04/06 00:15:25;;;;;;;12.70;4.90;;;6.10;99.90;;;;;;5075855;28;20443;-70
2022/04/06 00:17:51;;;;;;;23.77;7.25;;;6.10;99.90;;;;;;5075811;28;20104;-71
2022/04/06 00:20:17;;;;;;;21.90;7.28;;;6.10;99.90;;;;;;5076293;28;20020;-71
2022/04/06 00:22:43;;;;;;;17.58;7.00;;;6.10;99.90;;;;;;5075826;28;20496;-71
2022/04/06 00:25:09;;;;;;;11.45;4.25;;;6.20;99.90;;;;;;5057702;28;20059;-71
2022/04/06 00:27:36;;;;;;;8.77;3.97;;;6.10;99.90;;;;;;5057621;28;20016;-71
2022/04/06 00:30:02;;;;;;;8.50;3.88;;;6.10;99.90;;;;;;5075592;28;20028;-71
2022/04/06 00:32:27;;;;;;;11.45;4.43;;;6.10;99.90;;;;;;5076070;28;20078;-71
2022/04/06 00:37:38;;;;;;;9.13;4.20;;;6.10;99.90;;;;;;5075752;28;20046;-71
2022/04/06 00:40:05;;;;;;;11.88;4.38;;;6.10;99.90;;;;;;5075995;28;20025;-71
2022/04/06 00:42:31;;;;;;;8.65;4.18;;;6.20;99.90;;;;;;5075186;28;20055;-71
2022/04/06 00:44:57;;;;;;;9.65;4.03;;;6.20;99.90;;;;;;5075255;28;20056;-71
2022/04/06 00:47:22;;;;;;;6.75;3.72;;;6.20;99.90;;;;;;5075521;28;20056;-71
2022/04/06 00:49:48;;;;;;;5.93;3.20;;;6.20;99.90;;;;;;5075470;28;20017;-71
2022/04/06 00:52:14;;;;;;;6.57;3.10;;;6.20;99.90;;;;;;5075135;28;20023;-71
2022/04/06 00:54:40;;;;;;;7.70;3.20;;;6.20;99.90;;;;;;5075306;28;20077;-71
2022/04/06 00:57:07;;;;;;;4.57;2.40;;;6.20;99.90;;;;;;5075053;28;20057;-71
2022/04/06 00:59:33;;;;;;;3.72;2.10;;;6.20;99.90;;;;;;5074856;28;20036;-71
2022/04/06 01:01:59;;;;;;;4.20;2.00;;;6.30;99.90;;;;;;5075238;28;20416;-71
2022/04/06 01:04:25;;;;;;;5.45;2.47;;;6.20;99.90;;;;;;5074761;28;20493;-71
2022/04/06 01:06:52;;;;;;;5.25;2.05;;;6.20;99.90;;;;;;5074840;28;20021;-70
2022/04/06 01:09:19;;;;;;;4.32;2.28;;;6.20;99.90;;;;;;5075121;28;20021;-71
2022/04/06 01:11:47;;;;;;;4.25;2.03;;;6.20;99.90;;;;;;5075024;28;20021;-71
2022/04/06 01:14:13;;;;;;;6.18;2.22;;;6.20;99.90;;;;;;5074631;28;20028;-70
2022/04/06 01:16:40;;;;;;;6.45;2.55;;;6.10;99.90;;;;;;5074647;28;20032;-70
2022/04/06 01:19:06;;;;;;;5.75;2.85;;;6.10;99.90;;;;;;5074588;28;20107;-71
2022/04/06 01:21:31;;;;;;;6.22;3.08;;;6.10;99.90;;;;;;5074290;28;20103;-71
2022/04/06 01:23:57;;;;;;;4.78;2.90;;;6.10;99.90;;;;;;5056451;28;20477;-70
2022/04/06 01:26:24;;;;;;;5.13;2.83;;;6.10;99.90;;;;;;5074491;28;20094;-71
2022/04/06 01:28:50;;;;;;;7.03;3.50;;;6.00;99.90;;;;;;5074678;28;20449;-71
2022/04/06 01:31:16;;;;;;;5.63;3.17;;;6.00;99.90;;;;;;5074433;28;20032;-70
2022/04/06 01:33:42;;;;;;;5.53;3.00;;;6.00;99.90;;;;;;5056418;28;20024;-71
2022/04/06 01:36:08;;;;;;;5.35;2.88;;;6.00;99.90;;;;;;5074538;28;20075;-71
2022/04/06 01:38:34;;;;;;;5.18;3.17;;;6.00;99.90;;;;;;5074293;28;20048;-71
2022/04/06 01:41:00;;;;;;;5.53;2.80;;;6.00;99.90;;;;;;5074434;28;20074;-71
2022/04/06 01:43:26;;;;;;;7.38;3.20;;;6.00;99.90;;;;;;5074368;28;20029;-71
2022/04/06 01:45:52;;;;;;;4.55;2.78;;;6.00;99.90;;;;;;5056194;28;20060;-71
2022/04/06 01:48:18;;;;;;;5.85;2.85;;;6.00;99.90;;;;;;5074629;28;20418;-71
2022/04/06 01:53:29;;;;;;;5.10;3.22;;;6.00;99.90;;;;;;5074435;28;20089;-71
2022/04/06 01:55:56;;;;;;;7.13;3.47;;;6.00;99.90;;;;;;5073852;28;20052;-71
2022/04/06 01:58:22;;;;;;;7.13;3.58;;;5.90;99.90;;;;;;5055773;28;20054;-72
2022/04/06 02:00:49;;;;;;;8.30;4.32;;;5.90;99.90;;;;;;5055851;28;20086;-71
2022/04/06 02:03:15;;;;;;;9.50;4.80;;;5.90;99.90;;;;;;5073698;28;20394;-71
2022/04/06 02:05:41;;;;;;;10.80;4.78;;;5.90;99.90;;;;;;5085442;28;20027;-70
2022/04/06 02:08:07;;;;;;;9.02;4.82;;;5.90;99.90;;;;;;5092774;28;20028;-70
2022/04/06 02:10:33;;;;;;;8.27;4.47;;;5.90;99.90;;;;;;5092707;28;20020;-70
2022/04/06 02:12:59;;;;;;;9.50;4.22;;;5.90;99.90;;;;;;5093741;28;20035;-70
2022/04/06 02:15:27;;;;;;;9.32;4.55;;;5.90;99.90;;;;;;5094144;28;20024;-71
2022/04/06 02:17:53;;;;;;;8.32;4.68;;;5.90;99.90;;;;;;5094089;28;20020;-71
2022/04/06 02:20:19;;;;;;;7.95;4.13;;;5.90;99.90;;;;;;5094289;28;20054;-71
2022/04/06 02:22:45;;;;;;;7.82;3.88;;;5.90;99.90;;;;;;5093626;28;20055;-70
2022/04/06 02:25:14;;;;;;;10.07;4.78;;;6.00;99.90;;;;;;5093579;28;20016;-70
2022/04/06 02:27:46;;;;;;;8.10;4.68;;;6.00;99.90;;;;;;5093707;28;20070;-71
2022/04/06 02:30:12;;;;;;;8.77;4.60;;;6.00;99.90;;;;;;5093701;28;20020;-71
2022/04/06 02:32:37;;;;;;;8.95;4.63;;;6.00;99.90;;;;;;5093295;28;20119;-71
2022/04/06 02:35:03;;;;;;;9.07;4.63;;;6.00;99.90;;;;;;5092962;28;20020;-70
2022/04/06 02:37:29;;;;;;;9.02;4.78;;;6.00;99.90;;;;;;5093605;28;20026;-71
2022/04/06 02:39:54;;;;;;;9.27;4.40;;;6.00;99.90;;;;;;5093240;28;20472;-70
2022/04/06 02:42:20;;;;;;;9.85;5.05;;;6.00;99.90;;;;;;5093765;28;20457;-71
2022/04/06 02:44:46;;;;;;;9.07;5.10;;;6.00;99.90;;;;;;5075322;28;20039;-70
2022/04/06 02:47:11;;;;;;;9.18;5.10;;;6.00;99.90;;;;;;5093825;28;20032;-71
2022/04/06 02:49:37;;;;;;;7.70;4.40;;;6.00;99.90;;;;;;5093448;28;20024;-71
2022/04/06 02:52:04;;;;;;;9.10;4.65;;;6.00;99.90;;;;;;5093892;28;20035;-71
2022/04/06 02:54:30;;;;;;;12.05;5.65;;;6.00;99.90;;;;;;5093119;28;20020;-71
2022/04/06 02:56:55;;;;;;;9.48;4.95;;;6.00;99.90;;;;;;5093406;28;20051;-71
2022/04/06 02:59:21;;;;;;;7.15;3.88;;;6.00;99.90;;;;;;5093461;28;20035;-71
2022/04/06 03:01:46;;;;;;;7.07;3.88;;;5.90;99.90;;;;;;5093613;28;20035;-71
2022/04/06 03:04:12;;;;;;;8.05;3.50;;;5.90;99.90;;;;;;5093466;28;20028;-71
2022/04/06 03:06:39;;;;;;;6.82;3.70;;;5.80;99.90;;;;;;5093562;28;20102;-71
2022/04/06 03:09:05;;;;;;;8.10;3.78;;;5.80;99.90;;;;;;5074843;28;20024;-70
2022/04/06 03:11:30;;;;;;;7.18;3.90;;;5.80;99.90;;;;;;5093760;28;20372;-71
2022/04/06 03:13:56;;;;;;;7.40;3.88;;;5.80;99.90;;;;;;5075091;28;20024;-70
2022/04/06 03:16:22;;;;;;;7.40;4.10;;;5.80;99.90;;;;;;5093186;28;20028;-71
2022/04/06 03:18:47;;;;;;;9.15;4.43;;;5.80;99.90;;;;;;5093429;28;20426;-71
2022/04/06 03:21:13;;;;;;;8.52;4.20;;;5.70;99.90;;;;;;5093140;28;20031;-71
2022/04/06 03:23:39;;;;;;;9.32;4.72;;;5.80;99.90;;;;;;5093351;28;20030;-70
2022/04/06 03:26:04;;;;;;;8.20;4.43;;;5.70;99.90;;;;;;5092907;28;20024;-70
2022/04/06 03:28:30;;;;;;;8.18;3.78;;;5.70;99.90;;;;;;5093082;28;20024;-71
2022/04/06 03:30:56;;;;;;;7.35;3.92;;;5.70;99.90;;;;;;5093083;28;20020;-71
2022/04/06 03:33:21;;;;;;;6.90;3.78;;;5.70;99.90;;;;;;5093158;28;20024;-71
2022/04/06 03:35:47;;;;;;;7.63;4.15;;;5.70;99.90;;;;;;5093503;28;20031;-71
2022/04/06 03:38:13;;;;;;;9.23;5.25;;;5.70;99.90;;;;;;5093240;28;20107;-71
2022/04/06 03:40:39;;;;;;;10.02;5.45;;;5.70;99.90;;;;;;5092560;28;20441;-71
2022/04/06 03:43:05;;;;;;;11.05;5.45;;;5.70;99.90;;;;;;5093137;28;20111;-71
2022/04/06 03:45:30;;;;;;;12.40;6.45;;;5.70;99.90;;;;;;5094877;28;20055;-70
2022/04/06 03:47:56;;;;;;;10.70;5.78;;;5.70;99.90;;;;;;5096691;28;20024;-71
2022/04/06 03:50:22;;;;;;;11.32;6.28;;;5.70;99.90;;;;;;5096953;28;20096;-71
2022/04/06 03:52:47;;;;;;;12.25;7.05;;;5.70;99.90;;;;;;5096787;28;20016;-70
2022/04/06 03:55:13;;;;;;;11.77;6.65;;;5.80;99.90;;;;;;5096454;28;20024;-70
2022/04/06 03:57:40;;;;;;;12.40;6.60;;;5.80;99.90;;;;;;5096874;28;20051;-71
2022/04/06 04:00:08;;;;;;;9.60;5.90;;;5.80;99.90;;;;;;5078208;28;20512;-70
2022/04/06 04:02:34;;;;;;;10.40;5.18;;;5.80;99.90;;;;;;5096288;28;20423;-71
2022/04/06 04:05:00;;;;;;;9.25;4.82;;;5.80;99.90;;;;;;5096273;28;20021;-71
2022/04/06 04:07:26;;;;;;;9.95;5.20;;;5.80;99.90;;;;;;5096554;28;20020;-71
2022/04/06 04:09:52;;;;;;;8.60;4.93;;;5.70;99.90;;;;;;5096248;28;20027;-70
2022/04/06 04:12:18;;;;;;;41.75;19.38;;;5.70;99.90;;;;;;5096580;28;20106;-71
2022/04/06 04:14:45;;;;;;;31.85;16.35;;;5.70;99.90;;;;;;5077897;28;20020;-71
2022/04/06 04:17:11;;;;;;;22.02;12.13;;;5.70;99.90;;;;;;5096465;28;20024;-71
2022/04/06 04:19:37;;;;;;;19.13;10.15;;;5.70;99.90;;;;;;5096070;28;20031;-71
2022/04/06 04:22:03;;;;;;;11.93;6.03;;;5.70;99.90;;;;;;5096037;28;20062;-71
2022/04/06 04:24:28;;;;;;;11.43;6.30;;;5.70;99.90;;;;;;5095609;28;20915;-69
2022/04/06 04:26:54;;;;;;;11.02;5.82;;;5.70;99.90;;;;;;5095834;28;20115;-69
2022/04/06 04:29:20;;;;;;;11.30;5.68;;;5.70;99.90;;;;;;5095808;28;20028;-70
2022/04/06 04:31:46;;;;;;;11.63;5.38;;;5.70;99.90;;;;;;5095819;28;20027;-70
2022/04/06 04:34:12;;;;;;;9.98;4.32;;;5.70;99.90;;;;;;5077527;28;20373;-70
2022/04/06 04:36:38;;;;;;;11.50;4.20;;;5.70;99.90;;;;;;5095607;28;20035;-69
2022/04/06 04:39:04;;;;;;;9.38;4.20;;;5.70;99.90;;;;;;5095204;28;20028;-69
2022/04/06 04:41:30;;;;;;;11.02;4.28;;;5.70;99.90;;;;;;5095225;28;20027;-69
2022/04/06 04:43:56;;;;;;;12.98;5.63;;;5.70;99.90;;;;;;5095719;28;20034;-70
2022/04/06 04:46:22;;;;;;;12.13;4.65;;;5.70;99.90;;;;;;5077412;28;20024;-70
2022/04/06 04:48:48;;;;;;;12.90;4.90;;;5.70;99.90;;;;;;5095535;28;20028;-70
2022/04/06 04:51:14;;;;;;;13.15;4.95;;;5.70;99.90;;;;;;5095471;28;20380;-70
2022/04/06 04:53:41;;;;;;;10.68;4.75;;;5.70;99.90;;;;;;5095342;28;20100;-70
2022/04/06 04:56:07;;;;;;;10.40;4.50;;;5.70;99.90;;;;;;5076146;28;20035;-70
2022/04/06 04:58:33;;;;;;;10.63;5.28;;;5.70;99.90;;;;;;5094950;28;20100;-70
2022/04/06 05:00:59;;;;;;;12.85;5.80;;;5.70;99.90;;;;;;5095582;28;20484;-70
2022/04/06 05:03:24;;;;;;;15.18;6.18;;;5.70;99.90;;;;;;5095219;28;20020;-70
2022/04/06 05:05:53;;;;;;;13.75;6.35;;;5.60;99.90;;;;;;5095696;28;20372;-70
2022/04/06 05:08:19;;;;;;;11.70;5.85;;;5.60;99.90;;;;;;5076946;28;20027;-70
2022/04/06 05:10:45;;;;;;;12.40;6.18;;;5.60;99.90;;;;;;5076753;28;20035;-69
2022/04/06 05:13:13;;;;;;;14.88;6.50;;;5.60;99.90;;;;;;5095205;28;20399;-70
2022/04/06 05:15:39;;;;;;;12.73;6.47;;;5.60;99.90;;;;;;5095280;28;20030;-70
2022/04/06 05:18:05;;;;;;;14.43;7.72;;;5.60;99.90;;;;;;5095485;28;20095;-70
2022/04/06 05:20:31;;;;;;;13.48;6.95;;;5.60;99.90;;;;;;5094885;28;20044;-70
2022/04/06 05:22:56;;;;;;;15.20;7.20;;;5.60;99.90;;;;;;5095231;28;20063;-71
2022/04/06 05:25:22;;;;;;;14.40;7.20;;;5.60;99.90;;;;;;5094588;28;20024;-71
2022/04/06 05:27:53;;;;;;;15.77;7.72;;;5.60;99.90;;;;;;5094785;28;20060;-71
2022/04/06 05:30:21;;;;;;;16.13;8.52;;;5.60;99.90;;;;;;5095029;28;20111;-71
2022/04/06 05:32:48;;;;;;;15.05;7.80;;;5.60;99.90;;;;;;5094581;28;20027;-71
2022/04/06 05:35:14;;;;;;;13.35;6.75;;;5.60;99.90;;;;;;5076468;28;20031;-71
2022/04/06 05:37:42;;;;;;;12.55;7.10;;;5.60;99.90;;;;;;5094483;28;20020;-71
2022/04/06 05:40:09;;;;;;;17.90;8.68;;;5.70;99.90;;;;;;5094107;28;20030;-71
2022/04/06 05:42:35;;;;;;;14.70;8.15;;;5.70;99.90;;;;;;5094904;28;20418;-71
2022/04/06 05:45:02;;;;;;;11.75;6.60;;;5.70;99.90;;;;;;5076021;28;20032;-71
2022/04/06 05:47:27;;;;;;;12.80;7.10;;;5.70;99.90;;;;;;5094274;28;20020;-70
2022/04/06 05:49:53;;;;;;;12.63;6.80;;;5.70;99.90;;;;;;5094726;28;20032;-69
2022/04/06 05:52:19;;;;;;;11.50;6.90;;;5.70;99.90;;;;;;5094664;28;20028;-69
2022/04/06 05:54:44;;;;;;;14.45;7.93;;;5.70;99.90;;;;;;5093777;28;20377;-69
2022/04/06 05:57:10;;;;;;;10.80;6.13;;;5.60;99.90;;;;;;5075988;28;20024;-69
2022/04/06 05:59:40;;;;;;;9.25;5.45;;;5.60;99.90;;;;;;5094369;28;20036;-69
2022/04/06 06:02:09;;;;;;;12.35;7.13;;;5.70;99.90;;;;;;5094587;28;20028;-69
2022/04/06 06:04:34;;;;;;;13.60;6.97;;;5.70;99.90;;;;;;5075650;28;20031;-69
2022/04/06 06:07:00;;;;;;;10.95;6.30;;;5.70;99.90;;;;;;5094017;28;20016;-69
2022/04/06 06:09:27;;;;;;;20.60;7.97;;;5.70;99.90;;;;;;5093704;28;20028;-69
2022/04/06 06:11:54;;;;;;;16.80;7.43;;;5.70;99.90;;;;;;5093879;28;20024;-69
2022/04/06 06:14:20;;;;;;;11.63;6.45;;;5.70;99.90;;;;;;5075724;28;20107;-69
2022/04/06 06:16:46;;;;;;;13.10;6.75;;;5.60;99.90;;;;;;5094490;28;20039;-69
2022/04/06 06:19:12;;;;;;;9.95;5.65;;;5.60;99.90;;;;;;5075684;28;20020;-69
2022/04/06 06:21:38;;;;;;;12.00;6.53;;;5.70;99.90;;;;;;5093802;28;20103;-68
2022/04/06 06:24:06;;;;;;;12.45;6.90;;;5.70;99.90;;;;;;5093613;28;20020;-69
2022/04/06 06:26:33;;;;;;;24.75;8.00;;;5.70;99.90;;;;;;5093544;28;20027;-69
2022/04/06 06:28:58;;;;;;;18.30;6.80;;;5.70;99.90;;;;;;5093982;28;20012;-69
2022/04/06 06:31:25;;;;;;;15.15;6.60;;;5.70;99.90;;;;;;5093653;28;20441;-69
2022/04/06 06:33:51;;;;;;;11.60;5.65;;;5.70;99.90;;;;;;5075322;28;20024;-69
2022/04/06 06:36:17;;;;;;;11.20;6.38;;;5.80;99.90;;;;;;5094030;28;20456;-69
2022/04/06 06:38:43;;;;;;;11.85;6.35;;;5.80;99.90;;;;;;5093523;28;20024;-69
2022/04/06 06:41:09;;;;;;;10.60;5.80;;;5.90;99.90;;;;;;5093247;28;20555;-69
2022/04/06 06:43:34;;;;;;;10.00;5.78;;;6.00;99.90;;;;;;5093344;28;20028;-68
2022/04/06 06:46:00;;;;;;;12.65;6.72;;;6.00;99.90;;;;;;5094005;28;20032;-69
2022/04/06 06:48:25;;;;;;;8.77;5.82;;;6.10;99.90;;;;;;5093737;28;20050;-69
2022/04/06 06:50:51;;;;;;;10.27;5.53;;;6.10;99.90;;;;;;5093682;28;20024;-69
2022/04/06 06:53:17;;;;;;;34.67;7.35;;;6.10;99.90;;;;;;5075229;28;20028;-69
2022/04/06 06:55:42;;;;;;;12.05;6.40;;;6.20;99.90;;;;;;5093169;28;20030;-69
2022/04/06 06:58:08;;;;;;;12.23;6.15;;;6.10;99.90;;;;;;5093955;28;20024;-69
2022/04/06 07:00:34;;;;;;;11.98;6.03;;;6.20;99.90;;;;;;5093435;28;20040;-69
2022/04/06 07:02:59;;;;;;;10.35;5.60;;;6.20;99.90;;;;;;5075058;28;20032;-69
2022/04/06 07:05:25;;;;;;;15.30;7.90;;;6.20;99.90;;;;;;5075162;28;20026;-69
2022/04/06 07:07:53;;;;;;;13.82;8.30;;;6.30;99.90;;;;;;5093568;28;20024;-69
2022/04/06 07:10:20;;;;;;;14.15;7.32;;;6.20;99.90;;;;;;5074825;28;20495;-69
2022/04/06 07:12:45;;;;;;;15.57;7.03;;;6.20;99.90;;;;;;5093398;28;20032;-69
2022/04/06 07:15:11;;;;;;;12.45;7.35;;;6.20;99.90;;;;;;5093400;28;20031;-69
2022/04/06 07:17:37;;;;;;;12.68;6.97;;;6.20;99.90;;;;;;5093751;28;20031;-69
2022/04/06 07:20:03;;;;;;;11.27;6.03;;;6.30;99.90;;;;;;5095025;28;20365;-68
2022/04/06 07:22:29;;;;;;;7.88;4.97;;;6.30;99.90;;;;;;5097017;28;20081;-69
2022/04/06 07:24:54;;;;;;;8.98;5.15;;;6.30;99.90;;;;;;5096658;28;20020;-69
2022/04/06 07:27:21;;;;;;;11.93;6.68;;;6.40;99.90;;;;;;5097062;28;20050;-69
2022/04/06 07:29:46;;;;;;;12.10;6.05;;;6.40;99.90;;;;;;5096888;28;20031;-69
2022/04/06 07:32:12;;;;;;;14.32;7.05;;;6.50;99.90;;;;;;5096974;28;20442;-69
2022/04/06 07:34:38;;;;;;;12.70;6.80;;;6.50;99.90;;;;;;5078494;28;20028;-69
2022/04/06 07:37:04;;;;;;;9.30;5.70;;;6.60;99.90;;;;;;5097076;28;20028;-69
2022/04/06 07:39:30;;;;;;;10.27;6.05;;;6.70;99.90;;;;;;5096842;28;20476;-69
2022/04/06 07:41:56;;;;;;;9.57;6.10;;;6.70;99.90;;;;;;5096457;28;20046;-69
2022/04/06 07:44:23;;;;;;;12.95;7.68;;;6.80;99.90;;;;;;5096606;28;20020;-69
2022/04/06 07:46:48;;;;;;;13.43;7.43;;;6.90;99.90;;;;;;5097189;28;20035;-69
2022/04/06 07:49:14;;;;;;;13.27;7.70;;;6.90;99.90;;;;;;5096538;28;20099;-69
2022/04/06 07:51:40;;;;;;;11.70;7.05;;;7.00;99.90;;;;;;5097158;28;20456;-69
2022/04/06 07:54:06;;;;;;;12.90;7.38;;;7.10;99.90;;;;;;5096499;28;20020;-69
2022/04/06 07:56:31;;;;;;;12.43;7.13;;;7.10;99.90;;;;;;5077938;28;20108;-69
2022/04/06 07:58:57;;;;;;;12.07;6.63;;;7.20;99.90;;;;;;5096298;28;20365;-69
2022/04/06 08:01:23;;;;;;;11.15;6.50;;;7.40;99.90;;;;;;5096677;28;20040;-69
2022/04/06 08:03:48;;;;;;;10.82;7.07;;;7.50;99.90;;;;;;5078041;28;20024;-69
2022/04/06 08:06:14;;;;;;;9.88;6.13;;;7.70;99.90;;;;;;5096257;28;20020;-69
2022/04/06 08:08:40;;;;;;;15.55;8.60;;;7.80;99.90;;;;;;5096257;28;20384;-68
2022/04/06 08:11:06;;;;;;;11.80;7.30;;;7.90;99.90;;;;;;5095930;28;20379;-69
2022/04/06 08:13:32;;;;;;;12.35;7.82;;;8.00;99.90;;;;;;5096154;28;20391;-69
2022/04/06 08:15:59;;;;;;;11.32;7.22;;;8.10;99.90;;;;;;5077930;28;20115;-69
2022/04/06 08:18:25;;;;;;;10.40;6.47;;;8.10;99.90;;;;;;5096389;28;20102;-69
2022/04/06 08:20:51;;;;;;;8.48;5.65;;;8.20;99.90;;;;;;5096273;28;20027;-69
2022/04/06 08:23:18;;;;;;;7.53;5.43;;;8.30;99.90;;;;;;5096085;28;20032;-69
2022/04/06 08:25:44;;;;;;;8.13;6.15;;;8.40;99.90;;;;;;5095761;28;20468;-69
2022/04/06 08:28:10;;;;;;;10.88;7.07;;;8.50;99.90;;;;;;5096112;28;20043;-69
2022/04/06 08:30:43;;;;;;;8.38;5.72;;;8.60;99.90;;;;;;5077596;28;20023;-69
2022/04/06 08:33:10;;;;;;;6.93;4.32;;;8.70;99.90;;;;;;5096317;28;20384;-68
2022/04/06 08:35:36;;;;;;;6.10;3.97;;;8.80;99.90;;;;;;5095715;28;20464;-69
2022/04/06 08:38:03;;;;;;;5.50;3.70;;;8.90;99.90;;;;;;5095627;28;20028;-69
2022/04/06 08:40:30;;;;;;;6.57;3.22;;;9.00;99.90;;;;;;5095338;28;20103;-69
2022/04/06 08:42:57;;;;;;;4.80;3.42;;;9.00;99.90;;;;;;5095460;28;20020;-69
2022/04/06 08:45:23;;;;;;;5.20;3.50;;;9.10;99.90;;;;;;5095565;28;20027;-69
2022/04/06 08:47:51;;;;;;;6.78;3.88;;;9.20;99.90;;;;;;5095733;28;20353;-69
2022/04/06 08:50:18;;;;;;;7.78;3.78;;;9.30;99.90;;;;;;5095459;28;20020;-69
2022/04/06 08:52:45;;;;;;;7.35;4.60;;;9.40;99.90;;;;;;5095620;28;20012;-69
2022/04/06 08:55:12;;;;;;;8.15;4.97;;;9.50;99.90;;;;;;5095134;28;20055;-69
2022/04/06 08:57:40;;;;;;;8.20;3.97;;;9.60;99.90;;;;;;5095553;28;20045;-69
2022/04/06 09:00:06;;;;;;;5.82;4.03;;;9.80;99.90;;;;;;5077156;28;20062;-69
2022/04/06 09:02:32;;;;;;;6.82;4.10;;;9.90;99.90;;;;;;5094569;28;20020;-69
2022/04/06 09:05:02;;;;;;;4.35;2.97;;;10.00;99.90;;;;;;5095080;28;20050;-69
2022/04/06 09:07:28;;;;;;;4.40;3.25;;;10.10;99.90;;;;;;5095370;28;20012;-69
2022/04/06 09:09:55;;;;;;;6.00;3.08;;;10.30;99.90;;;;;;5076922;28;20023;-69
2022/04/06 09:12:25;;;;;;;4.80;3.05;;;10.50;99.90;;;;;;5094840;28;20468;-69
2022/04/06 09:15:10;;;;;;;3.97;3.25;;;10.60;99.90;;;;;;5095535;28;20039;-69
2022/04/06 09:17:47;;;;;;;4.20;2.92;;;10.70;99.90;;;;;;5094887;28;20016;-69
2022/04/06 09:20:15;;;;;;;3.58;2.65;;;10.80;99.90;;;;;;5095106;28;20411;-69
2022/04/06 09:22:41;;;;;;;4.18;2.40;;;10.80;99.90;;;;;;5094755;28;20102;-69
2022/04/06 09:25:09;;;;;;;3.60;1.90;;;10.90;99.90;;;;;;5076332;28;20024;-70
2022/04/06 09:27:35;;;;;;;2.83;1.40;;;11.00;99.90;;;;;;5095025;28;20024;-69
2022/04/06 09:30:05;;;;;;;2.22;1.30;;;11.20;99.90;;;;;;5094980;28;20027;-69
2022/04/06 09:32:30;;;;;;;3.00;1.50;;;11.30;99.90;;;;;;5076462;28;20024;-69
2022/04/06 09:34:56;;;;;;;2.40;1.30;;;11.40;99.90;;;;;;5094876;28;20028;-69
2022/04/06 09:37:30;;;;;;;3.13;2.03;;;11.50;99.90;;;;;;5094580;28;20028;-69
2022/04/06 09:40:06;;;;;;;1.90;1.20;;;11.60;99.90;;;;;;5094641;28;20507;-69
2022/04/06 09:42:32;;;;;;;3.22;1.80;;;11.70;99.90;;;;;;5094054;28;20035;-69
2022/04/06 09:47:58;;;;;;;2.38;1.60;;;12.00;99.90;;;;;;5095419;28;20046;-69
2022/04/06 09:50:30;;;;;;;3.72;1.92;;;12.10;99.90;;;;;;5095176;28;20020;-69
2022/04/06 09:53:00;;;;;;;2.92;1.73;;;12.20;99.90;;;;;;5095938;28;20344;-69
2022/04/06 09:55:26;;;;;;;4.25;2.00;;;12.30;99.90;;;;;;5076260;28;20024;-70
2022/04/06 09:57:55;;;;;;;2.38;1.48;;;12.40;99.90;;;;;;5094539;28;20030;-69
2022/04/06 10:00:31;;;;;;;3.47;1.35;;;12.60;99.90;;;;;;5094306;28;20519;-69
2022/04/06 10:03:06;;;;;;;3.30;2.20;;;12.70;99.90;;;;;;5094243;28;20043;-69
2022/04/06 10:05:37;;;;;;;3.20;1.65;;;12.80;99.90;;;;;;5094316;28;20082;-69
2022/04/06 10:08:05;;;;;;;2.72;1.65;;;12.90;99.90;;;;;;5094008;28;20500;-69
2022/04/06 10:10:35;;;;;;;3.25;1.67;;;13.00;99.90;;;;;;5093607;28;20032;-69
2022/04/06 10:13:04;;;;;;;2.72;1.38;;;13.10;99.90;;;;;;5094104;28;20070;-69
2022/04/06 10:15:31;;;;;;;3.67;1.95;;;13.20;99.90;;;;;;5076056;28;20031;-69
2022/04/06 10:17:57;;;;;;;4.20;1.30;;;13.30;99.90;;;;;;5075707;28;20121;-69
2022/04/06 10:20:45;;;;;;;2.72;1.50;;;13.30;99.90;;;;;;5093929;28;20492;-70
2022/04/06 10:23:28;;;;;;;3.78;1.40;;;13.40;99.90;;;;;;5093999;28;20384;-70
2022/04/06 10:26:27;;;;;;;2.10;1.27;;;13.60;99.90;;;;;;5093564;28;20102;-70
2022/04/06 10:28:53;;;;;;;1.85;0.88;;;13.70;99.90;;;;;;5093797;28;20016;-69
2022/04/06 10:31:25;;;;;;;1.85;0.98;;;13.80;99.90;;;;;;5093665;28;20026;-69
2022/04/06 10:34:11;;;;;;;1.58;1.00;;;13.90;99.90;;;;;;5076020;28;20028;-69
2022/04/06 10:36:40;;;;;;;4.35;1.00;;;14.00;99.90;;;;;;5093474;28;20062;-69
2022/04/06 10:39:06;;;;;;;1.65;0.80;;;14.10;98.60;;;;;;5093487;28;20499;-70
2022/04/06 10:41:33;;;;;;;3.20;0.50;;;14.10;95.90;;;;;;5075159;28;20052;-70
2022/04/06 10:43:59;;;;;;;1.00;0.68;;;14.10;94.70;;;;;;5075474;28;20024;-69
2022/04/06 10:46:40;;;;;;;1.00;0.60;;;14.20;95.20;;;;;;5093792;28;20028;-69
2022/04/06 10:49:06;;;;;;;2.08;0.50;;;14.30;96.30;;;;;;5093388;28;20016;-69
2022/04/06 10:51:37;;;;;;;1.52;0.75;;;14.40;96.90;;;;;;5093726;28;20027;-69
2022/04/06 10:54:14;;;;;;;1.27;0.75;;;14.70;97.30;;;;;;5093347;28;20024;-69
2022/04/06 10:56:49;;;;;;;2.25;0.60;;;14.90;93.80;;;;;;5097717;28;20035;-69
2022/04/06 10:59:19;;;;;;;1.13;0.70;;;15.00;94.40;;;;;;5097521;28;20385;-69
2022/04/06 11:01:46;;;;;;;5.30;1.20;;;15.20;92.90;;;;;;5097572;28;20058;-69
2022/04/06 11:04:22;;;;;;;1.58;0.70;;;15.30;90.60;;;;;;5097387;28;20417;-69
2022/04/06 11:06:55;;;;;;;2.28;0.80;;;15.40;90.50;;;;;;5097367;28;20016;-69
2022/04/06 11:12:26;;;;;;;1.08;0.35;;;15.40;88.00;;;;;;5097138;28;20593;-70
2022/04/06 11:14:58;;;;;;;1.42;0.50;;;15.30;86.10;;;;;;5097498;28;20465;-69
2022/04/06 11:17:33;;;;;;;1.10;0.50;;;15.40;84.90;;;;;;5097222;28;20020;-69
2022/04/06 11:19:59;;;;;;;0.70;0.30;;;15.50;84.70;;;;;;5097225;28;20496;-70
2022/04/06 11:22:25;;;;;;;2.90;0.50;;;15.50;84.80;;;;;;5097149;28;20028;-69
2022/04/06 11:24:51;;;;;;;1.42;0.55;;;15.60;85.60;;;;;;5097561;28;20035;-69
2022/04/06 11:27:27;;;;;;;9.27;2.05;;;15.80;85.20;;;;;;5096487;28;20020;-70
2022/04/06 11:30:05;;;;;;;0.77;0.40;;;15.80;80.20;;;;;;5095351;28;20028;-69
2022/04/06 11:32:31;;;;;;;1.38;0.30;;;15.90;82.50;;;;;;5090312;28;20465;-70
2022/04/06 11:35:05;;;;;;;2.85;0.52;;;15.80;80.10;;;;;;5087343;28;20032;-69
2022/04/06 11:37:38;;;;;;;3.53;0.35;;;15.80;79.90;;;;;;5089334;28;20017;-69
2022/04/06 11:40:04;;;;;;;1.05;0.30;;;15.80;78.20;;;;;;5087336;28;20016;-70
2022/04/06 11:42:30;;;;;;;0.55;0.28;;;15.90;85.30;;;;;;5096651;28;20103;-69
2022/04/06 11:44:56;;;;;;;0.40;0.30;;;16.00;80.20;;;;;;5092717;28;20107;-70
2022/04/06 11:47:29;;;;;;;9.63;0.40;;;16.00;78.80;;;;;;5088462;28;20058;-69
2022/04/06 11:49:55;;;;;;;0.30;0.20;;;16.00;80.70;;;;;;5051120;23;20041;-80
2022/04/06 11:52:21;;;;;;;0.47;0.20;;;16.00;79.10;;;;;;5028984;28;20358;-80
2022/04/06 11:54:56;;;;;;;0.95;0.20;;;16.10;77.00;;;;;;5035030;28;20079;-81
2022/04/06 11:57:48;;;;;;;0.35;0.20;;;16.30;79.80;;;;;;5033676;28;20026;-80
2022/04/06 12:00:16;;;;;;;1.98;0.60;;;16.30;77.00;;;;;;4999163;28;20410;-80
2022/04/06 12:02:56;;;;;;;1.17;0.40;;;16.40;76.50;;;;;;5011723;28;20036;-79
2022/04/06 12:05:24;;;;;;;2.17;0.30;;;16.50;74.90;;;;;;5017363;28;20033;-80
2022/04/06 12:08:12;;;;;;;3.08;0.57;;;16.70;76.00;;;;;;5018063;28;20028;-79
2022/04/06 12:10:48;;;;;;;1.20;0.20;;;16.70;74.20;;;;;;5018121;28;20420;-79
2022/04/06 12:13:14;;;;;;;0.50;0.30;;;16.70;75.50;;;;;;5018303;28;20454;-79
2022/04/06 12:15:43;;;;;;;0.30;0.17;;;16.80;76.60;;;;;;5017811;28;20038;-79
2022/04/06 12:18:10;;;;;;;2.65;0.28;;;16.80;75.40;;;;;;5019097;28;20504;-79
2022/04/06 12:20:35;;;;;;;0.60;0.30;;;16.90;74.40;;;;;;5018573;28;20088;-79
2022/04/06 12:23:05;;;;;;;0.52;0.10;;;17.00;75.50;;;;;;5018249;28;20034;-79
2022/04/06 12:25:36;;;;;;;0.45;0.20;;;17.10;73.90;;;;;;5017903;28;20026;-79
2022/04/06 12:28:13;;;;;;;1.38;0.30;;;17.20;77.20;;;;;;5017801;28;20030;-79
2022/04/06 12:31:02;;;;;;;1.25;0.30;;;17.20;75.90;;;;;;5017982;28;20400;-79
2022/04/06 12:33:43;;;;;;;1.70;0.60;;;17.30;71.70;;;;;;5018221;28;20374;-79
2022/04/06 12:36:14;;;;;;;1.25;0.40;;;17.40;71.50;;;;;;5016613;28;20456;-79
2022/04/06 12:38:41;;;;;;;0.45;0.30;;;17.30;69.30;;;;;;5017742;28;20025;-79
2022/04/06 12:41:08;;;;;;;1.33;0.30;;;17.40;74.60;;;;;;5017651;28;20117;-79
2022/04/06 12:43:44;;;;;;;0.45;0.20;;;17.60;70.40;;;;;;5018170;28;20030;-79
2022/04/06 12:46:11;;;;;;;1.40;0.30;;;17.60;74.20;;;;;;5016875;28;20022;-79
2022/04/06 12:48:36;;;;;;;1.00;0.40;;;17.80;75.10;;;;;;5017635;28;20394;-79
2022/04/06 12:51:21;;;;;;;0.93;0.40;;;18.00;70.20;;;;;;5018012;28;20033;-79
2022/04/06 12:53:49;;;;;;;0.88;0.30;;;18.00;74.50;;;;;;5018209;28;20464;-79
2022/04/06 12:56:15;;;;;;;1.08;0.30;;;18.10;69.40;;;;;;5017455;28;20060;-79
2022/04/06 12:58:41;;;;;;;1.95;0.30;;;18.10;74.70;;;;;;5018412;28;20044;-78
2022/04/06 13:01:11;;;;;;;6.82;0.80;;;18.20;72.60;;;;;;5018962;28;20381;-79
2022/04/06 13:03:37;;;;;;;1.17;0.35;;;18.30;73.40;;;;;;5019466;28;20361;-79